sensor_id;sensor_type;location;lat;lon;timestamp;P1;durP1;ratioP1;P2;durP2;ratioP2
31734;SDS011;18313;48.518;9.124;2023-05-24T00:00:18;5.43;;;3.40;;
31734;SDS011;18313;48.518;9.124;2023-05-24T00:02:47;4.70;;;3.20;;
31734;SDS011;18313;48.518;9.124;2023-05-24T00:05:15;7.22;;;3.58;;
31734;SDS011;18313;48.518;9.124;2023-05-24T00:07:44;5.00;;;3.38;;
31734;SDS011;18313;48.518;9.124;2023-05-24T00:10:11;5.63;;;3.45;;
31734;SDS011;18313;48.518;9.124;2023-05-24T00:12:38;5.22;;;3.47;;
31734;SDS011;18313;48.518;9.124;2023-05-24T00:15:05;5.80;;;3.88;;
31734;SDS011;18313;48.518;9.124;2023-05-24T00:17:33;6.57;;;3.58;;
31734;SDS011;18313;48.518;9.124;2023-05-24T00:20:09;8.55;;;3.78;;
31734;SDS011;18313;48.518;9.124;2023-05-24T00:22:37;7.03;;;3.75;;
31734;SDS011;18313;48.518;9.124;2023-05-24T00:25:05;6.60;;;4.10;;
31734;SDS011;18313;48.518;9.124;2023-05-24T00:27:33;6.95;;;3.90;;
31734;SDS011;18313;48.518;9.124;2023-05-24T00:30:03;7.70;;;3.63;;
31734;SDS011;18313;48.518;9.124;2023-05-24T00:32:31;5.70;;;3.95;;
31734;SDS011;18313;48.518;9.124;2023-05-24T00:34:58;7.95;;;3.63;;
31734;SDS011;18313;48.518;9.124;2023-05-24T00:37:25;6.90;;;3.63;;
31734;SDS011;18313;48.518;9.124;2023-05-24T00:39:52;5.35;;;3.63;;
31734;SDS011;18313;48.518;9.124;2023-05-24T00:42:20;7.18;;;3.65;;
31734;SDS011;18313;48.518;9.124;2023-05-24T00:44:47;5.95;;;3.30;;
31734;SDS011;18313;48.518;9.124;2023-05-24T00:47:14;6.40;;;3.80;;
31734;SDS011;18313;48.518;9.124;2023-05-24T00:49:42;5.60;;;3.60;;
31734;SDS011;18313;48.518;9.124;2023-05-24T00:52:10;6.80;;;3.70;;
31734;SDS011;18313;48.518;9.124;2023-05-24T00:54:37;6.05;;;3.58;;
31734;SDS011;18313;48.518;9.124;2023-05-24T00:57:06;6.03;;;3.38;;
31734;SDS011;18313;48.518;9.124;2023-05-24T00:59:33;8.38;;;3.60;;
31734;SDS011;18313;48.518;9.124;2023-05-24T01:02:01;7.15;;;3.20;;
31734;SDS011;18313;48.518;9.124;2023-05-24T01:04:29;5.45;;;3.30;;
31734;SDS011;18313;48.518;9.124;2023-05-24T01:08:03;7.00;;;3.70;;
31734;SDS011;18313;48.518;9.124;2023-05-24T01:12:55;7.22;;;3.33;;
31734;SDS011;18313;48.518;9.124;2023-05-24T01:15:32;7.97;;;3.45;;
31734;SDS011;18313;48.518;9.124;2023-05-24T01:18:23;5.55;;;3.38;;
31734;SDS011;18313;48.518;9.124;2023-05-24T01:23:59;5.43;;;3.30;;
31734;SDS011;18313;48.518;9.124;2023-05-24T01:27:07;5.05;;;3.10;;
31734;SDS011;18313;48.518;9.124;2023-05-24T01:29:37;7.60;;;3.38;;
31734;SDS011;18313;48.518;9.124;2023-05-24T01:32:05;6.05;;;3.25;;
31734;SDS011;18313;48.518;9.124;2023-05-24T01:34:32;6.63;;;3.53;;
31734;SDS011;18313;48.518;9.124;2023-05-24T01:37:00;6.90;;;3.40;;
31734;SDS011;18313;48.518;9.124;2023-05-24T01:39:27;6.70;;;3.30;;
31734;SDS011;18313;48.518;9.124;2023-05-24T01:44:42;6.18;;;3.20;;
31734;SDS011;18313;48.518;9.124;2023-05-24T01:50:02;7.35;;;3.55;;
31734;SDS011;18313;48.518;9.124;2023-05-24T01:52:36;9.52;;;3.97;;
31734;SDS011;18313;48.518;9.124;2023-05-24T01:55:05;10.15;;;3.88;;
31734;SDS011;18313;48.518;9.124;2023-05-24T01:57:35;12.45;;;3.40;;
31734;SDS011;18313;48.518;9.124;2023-05-24T02:00:04;8.55;;;3.20;;
31734;SDS011;18313;48.518;9.124;2023-05-24T02:02:33;6.93;;;3.17;;
31734;SDS011;18313;48.518;9.124;2023-05-24T02:05:02;8.85;;;3.88;;
31734;SDS011;18313;48.518;9.124;2023-05-24T02:07:29;7.28;;;3.15;;
31734;SDS011;18313;48.518;9.124;2023-05-24T02:09:57;5.93;;;3.10;;
31734;SDS011;18313;48.518;9.124;2023-05-24T02:12:24;6.63;;;3.28;;
31734;SDS011;18313;48.518;9.124;2023-05-24T02:14:51;7.38;;;2.80;;
31734;SDS011;18313;48.518;9.124;2023-05-24T02:17:20;5.47;;;2.83;;
31734;SDS011;18313;48.518;9.124;2023-05-24T02:19:48;7.55;;;3.13;;
31734;SDS011;18313;48.518;9.124;2023-05-24T02:22:16;4.85;;;2.90;;
31734;SDS011;18313;48.518;9.124;2023-05-24T02:24:43;7.80;;;3.17;;
31734;SDS011;18313;48.518;9.124;2023-05-24T02:27:10;6.65;;;3.15;;
31734;SDS011;18313;48.518;9.124;2023-05-24T02:29:37;10.07;;;3.30;;
31734;SDS011;18313;48.518;9.124;2023-05-24T02:32:04;9.80;;;3.20;;
31734;SDS011;18313;48.518;9.124;2023-05-24T02:34:32;7.70;;;3.00;;
31734;SDS011;18313;48.518;9.124;2023-05-24T02:36:59;10.27;;;3.53;;
31734;SDS011;18313;48.518;9.124;2023-05-24T02:39:27;8.80;;;3.15;;
31734;SDS011;18313;48.518;9.124;2023-05-24T02:41:54;10.35;;;3.22;;
31734;SDS011;18313;48.518;9.124;2023-05-24T02:44:21;7.68;;;3.40;;
31734;SDS011;18313;48.518;9.124;2023-05-24T02:46:49;10.55;;;3.20;;
31734;SDS011;18313;48.518;9.124;2023-05-24T02:49:16;12.32;;;3.10;;
31734;SDS011;18313;48.518;9.124;2023-05-24T02:51:43;7.47;;;3.10;;
31734;SDS011;18313;48.518;9.124;2023-05-24T02:54:10;12.55;;;3.40;;
31734;SDS011;18313;48.518;9.124;2023-05-24T02:56:37;9.05;;;3.50;;
31734;SDS011;18313;48.518;9.124;2023-05-24T02:59:05;8.00;;;3.47;;
31734;SDS011;18313;48.518;9.124;2023-05-24T03:01:32;11.07;;;3.22;;
31734;SDS011;18313;48.518;9.124;2023-05-24T03:03:59;10.20;;;3.45;;
31734;SDS011;18313;48.518;9.124;2023-05-24T03:06:28;9.98;;;3.38;;
31734;SDS011;18313;48.518;9.124;2023-05-24T03:08:55;12.02;;;3.53;;
31734;SDS011;18313;48.518;9.124;2023-05-24T03:11:23;11.43;;;3.40;;
31734;SDS011;18313;48.518;9.124;2023-05-24T03:13:51;11.98;;;3.40;;
31734;SDS011;18313;48.518;9.124;2023-05-24T03:16:19;13.23;;;4.53;;
31734;SDS011;18313;48.518;9.124;2023-05-24T03:18:46;11.15;;;3.40;;
31734;SDS011;18313;48.518;9.124;2023-05-24T03:21:16;9.68;;;3.30;;
31734;SDS011;18313;48.518;9.124;2023-05-24T03:23:46;10.02;;;3.40;;
31734;SDS011;18313;48.518;9.124;2023-05-24T03:26:13;9.70;;;3.30;;
31734;SDS011;18313;48.518;9.124;2023-05-24T03:28:40;7.40;;;3.10;;
31734;SDS011;18313;48.518;9.124;2023-05-24T03:31:08;11.82;;;3.15;;
31734;SDS011;18313;48.518;9.124;2023-05-24T03:33:35;8.05;;;3.15;;
31734;SDS011;18313;48.518;9.124;2023-05-24T03:36:03;10.90;;;3.80;;
31734;SDS011;18313;48.518;9.124;2023-05-24T03:38:32;11.00;;;3.47;;
31734;SDS011;18313;48.518;9.124;2023-05-24T03:40:59;11.55;;;3.42;;
31734;SDS011;18313;48.518;9.124;2023-05-24T03:43:26;11.65;;;4.95;;
31734;SDS011;18313;48.518;9.124;2023-05-24T03:45:54;12.07;;;3.40;;
31734;SDS011;18313;48.518;9.124;2023-05-24T03:48:21;9.57;;;3.58;;
31734;SDS011;18313;48.518;9.124;2023-05-24T03:50:49;10.68;;;3.80;;
31734;SDS011;18313;48.518;9.124;2023-05-24T03:53:16;13.10;;;4.47;;
31734;SDS011;18313;48.518;9.124;2023-05-24T03:55:47;10.60;;;3.50;;
31734;SDS011;18313;48.518;9.124;2023-05-24T03:58:14;11.45;;;3.65;;
31734;SDS011;18313;48.518;9.124;2023-05-24T04:00:42;13.25;;;4.22;;
31734;SDS011;18313;48.518;9.124;2023-05-24T04:03:09;11.40;;;3.80;;
31734;SDS011;18313;48.518;9.124;2023-05-24T04:05:38;11.20;;;3.78;;
31734;SDS011;18313;48.518;9.124;2023-05-24T04:08:05;10.20;;;3.47;;
31734;SDS011;18313;48.518;9.124;2023-05-24T04:10:33;13.77;;;3.83;;
31734;SDS011;18313;48.518;9.124;2023-05-24T04:13:00;10.25;;;3.53;;
31734;SDS011;18313;48.518;9.124;2023-05-24T04:15:28;11.30;;;3.58;;
31734;SDS011;18313;48.518;9.124;2023-05-24T04:17:55;10.40;;;3.70;;
31734;SDS011;18313;48.518;9.124;2023-05-24T04:20:23;10.95;;;3.58;;
31734;SDS011;18313;48.518;9.124;2023-05-24T04:22:51;13.63;;;3.50;;
31734;SDS011;18313;48.518;9.124;2023-05-24T04:25:19;13.43;;;3.60;;
31734;SDS011;18313;48.518;9.124;2023-05-24T04:27:46;9.55;;;3.35;;
31734;SDS011;18313;48.518;9.124;2023-05-24T04:30:14;11.27;;;3.45;;
31734;SDS011;18313;48.518;9.124;2023-05-24T04:32:42;7.90;;;3.33;;
31734;SDS011;18313;48.518;9.124;2023-05-24T04:35:10;9.80;;;3.65;;
31734;SDS011;18313;48.518;9.124;2023-05-24T04:37:38;10.52;;;3.90;;
31734;SDS011;18313;48.518;9.124;2023-05-24T04:40:06;10.27;;;3.70;;
31734;SDS011;18313;48.518;9.124;2023-05-24T04:42:34;10.00;;;3.47;;
31734;SDS011;18313;48.518;9.124;2023-05-24T04:45:02;9.35;;;3.63;;
31734;SDS011;18313;48.518;9.124;2023-05-24T04:47:29;10.85;;;3.80;;
31734;SDS011;18313;48.518;9.124;2023-05-24T04:49:57;17.17;;;4.30;;
31734;SDS011;18313;48.518;9.124;2023-05-24T04:52:24;12.65;;;4.00;;
31734;SDS011;18313;48.518;9.124;2023-05-24T04:54:51;16.17;;;4.10;;
31734;SDS011;18313;48.518;9.124;2023-05-24T04:57:20;11.68;;;4.28;;
31734;SDS011;18313;48.518;9.124;2023-05-24T04:59:48;16.98;;;4.10;;
31734;SDS011;18313;48.518;9.124;2023-05-24T05:02:16;13.27;;;3.63;;
31734;SDS011;18313;48.518;9.124;2023-05-24T05:04:43;14.88;;;4.32;;
31734;SDS011;18313;48.518;9.124;2023-05-24T05:07:10;9.60;;;3.97;;
31734;SDS011;18313;48.518;9.124;2023-05-24T05:09:38;13.52;;;4.10;;
31734;SDS011;18313;48.518;9.124;2023-05-24T05:12:05;16.08;;;4.53;;
31734;SDS011;18313;48.518;9.124;2023-05-24T05:14:33;14.73;;;4.30;;
31734;SDS011;18313;48.518;9.124;2023-05-24T05:17:00;11.98;;;3.85;;
31734;SDS011;18313;48.518;9.124;2023-05-24T05:19:27;11.15;;;3.90;;
31734;SDS011;18313;48.518;9.124;2023-05-24T05:21:55;13.32;;;4.40;;
31734;SDS011;18313;48.518;9.124;2023-05-24T05:24:22;10.30;;;3.90;;
31734;SDS011;18313;48.518;9.124;2023-05-24T05:26:49;10.55;;;3.80;;
31734;SDS011;18313;48.518;9.124;2023-05-24T05:29:16;14.93;;;3.92;;
31734;SDS011;18313;48.518;9.124;2023-05-24T05:31:44;11.30;;;4.13;;
31734;SDS011;18313;48.518;9.124;2023-05-24T05:34:12;11.93;;;4.15;;
31734;SDS011;18313;48.518;9.124;2023-05-24T05:36:39;13.02;;;4.18;;
31734;SDS011;18313;48.518;9.124;2023-05-24T05:39:08;14.43;;;4.50;;
31734;SDS011;18313;48.518;9.124;2023-05-24T05:41:36;10.77;;;4.05;;
31734;SDS011;18313;48.518;9.124;2023-05-24T05:44:11;9.43;;;3.92;;
31734;SDS011;18313;48.518;9.124;2023-05-24T05:46:39;14.85;;;4.00;;
31734;SDS011;18313;48.518;9.124;2023-05-24T05:49:09;13.90;;;4.00;;
31734;SDS011;18313;48.518;9.124;2023-05-24T05:51:36;12.60;;;3.90;;
31734;SDS011;18313;48.518;9.124;2023-05-24T05:54:04;11.73;;;3.83;;
31734;SDS011;18313;48.518;9.124;2023-05-24T05:56:32;11.95;;;3.80;;
31734;SDS011;18313;48.518;9.124;2023-05-24T05:58:59;13.23;;;3.83;;
31734;SDS011;18313;48.518;9.124;2023-05-24T06:01:26;15.50;;;4.00;;
31734;SDS011;18313;48.518;9.124;2023-05-24T06:03:54;13.25;;;4.25;;
31734;SDS011;18313;48.518;9.124;2023-05-24T06:06:21;10.68;;;4.05;;
31734;SDS011;18313;48.518;9.124;2023-05-24T06:08:49;17.50;;;4.47;;
31734;SDS011;18313;48.518;9.124;2023-05-24T06:11:16;10.98;;;3.72;;
31734;SDS011;18313;48.518;9.124;2023-05-24T06:13:43;13.05;;;4.00;;
31734;SDS011;18313;48.518;9.124;2023-05-24T06:16:11;13.02;;;4.18;;
31734;SDS011;18313;48.518;9.124;2023-05-24T06:18:39;13.57;;;4.00;;
31734;SDS011;18313;48.518;9.124;2023-05-24T06:21:19;11.88;;;4.18;;
31734;SDS011;18313;48.518;9.124;2023-05-24T06:23:47;16.15;;;5.07;;
31734;SDS011;18313;48.518;9.124;2023-05-24T06:26:14;11.57;;;4.15;;
31734;SDS011;18313;48.518;9.124;2023-05-24T06:28:41;12.65;;;4.20;;
31734;SDS011;18313;48.518;9.124;2023-05-24T06:31:09;17.98;;;5.05;;
31734;SDS011;18313;48.518;9.124;2023-05-24T06:33:36;13.60;;;4.50;;
31734;SDS011;18313;48.518;9.124;2023-05-24T06:36:04;12.23;;;4.82;;
31734;SDS011;18313;48.518;9.124;2023-05-24T06:38:31;15.18;;;4.47;;
31734;SDS011;18313;48.518;9.124;2023-05-24T06:40:59;11.25;;;4.05;;
31734;SDS011;18313;48.518;9.124;2023-05-24T06:43:26;10.93;;;4.22;;
31734;SDS011;18313;48.518;9.124;2023-05-24T06:45:53;12.10;;;4.38;;
31734;SDS011;18313;48.518;9.124;2023-05-24T06:48:22;13.82;;;4.80;;
31734;SDS011;18313;48.518;9.124;2023-05-24T06:50:49;12.38;;;4.75;;
31734;SDS011;18313;48.518;9.124;2023-05-24T06:53:17;14.55;;;4.78;;
31734;SDS011;18313;48.518;9.124;2023-05-24T06:55:45;14.63;;;4.97;;
31734;SDS011;18313;48.518;9.124;2023-05-24T06:58:12;12.75;;;4.47;;
31734;SDS011;18313;48.518;9.124;2023-05-24T07:00:40;10.73;;;4.35;;
31734;SDS011;18313;48.518;9.124;2023-05-24T07:03:08;13.30;;;4.97;;
31734;SDS011;18313;48.518;9.124;2023-05-24T07:05:36;16.58;;;4.60;;
31734;SDS011;18313;48.518;9.124;2023-05-24T07:08:04;12.10;;;4.70;;
31734;SDS011;18313;48.518;9.124;2023-05-24T07:10:32;16.48;;;5.15;;
31734;SDS011;18313;48.518;9.124;2023-05-24T07:13:00;10.40;;;4.47;;
31734;SDS011;18313;48.518;9.124;2023-05-24T07:15:27;18.67;;;5.00;;
31734;SDS011;18313;48.518;9.124;2023-05-24T07:17:54;10.65;;;4.30;;
31734;SDS011;18313;48.518;9.124;2023-05-24T07:20:22;12.52;;;4.55;;
31734;SDS011;18313;48.518;9.124;2023-05-24T07:22:49;13.55;;;4.90;;
31734;SDS011;18313;48.518;9.124;2023-05-24T07:25:17;10.35;;;4.75;;
31734;SDS011;18313;48.518;9.124;2023-05-24T07:27:44;13.77;;;4.13;;
31734;SDS011;18313;48.518;9.124;2023-05-24T07:30:12;14.35;;;4.88;;
31734;SDS011;18313;48.518;9.124;2023-05-24T07:35:24;12.63;;;5.20;;
31734;SDS011;18313;48.518;9.124;2023-05-24T07:37:51;11.93;;;4.30;;
31734;SDS011;18313;48.518;9.124;2023-05-24T07:40:18;14.52;;;4.22;;
31734;SDS011;18313;48.518;9.124;2023-05-24T07:42:45;15.70;;;4.32;;
31734;SDS011;18313;48.518;9.124;2023-05-24T07:45:13;18.13;;;5.80;;
31734;SDS011;18313;48.518;9.124;2023-05-24T07:47:40;10.55;;;4.13;;
31734;SDS011;18313;48.518;9.124;2023-05-24T07:50:08;10.73;;;4.20;;
31734;SDS011;18313;48.518;9.124;2023-05-24T07:52:36;12.80;;;4.15;;
31734;SDS011;18313;48.518;9.124;2023-05-24T07:55:04;15.18;;;4.47;;
31734;SDS011;18313;48.518;9.124;2023-05-24T07:57:32;16.63;;;4.70;;
31734;SDS011;18313;48.518;9.124;2023-05-24T07:59:59;32.67;;;6.03;;
31734;SDS011;18313;48.518;9.124;2023-05-24T08:02:33;14.98;;;4.35;;
31734;SDS011;18313;48.518;9.124;2023-05-24T08:05:01;18.10;;;4.97;;
31734;SDS011;18313;48.518;9.124;2023-05-24T08:07:30;13.07;;;4.32;;
31734;SDS011;18313;48.518;9.124;2023-05-24T08:09:58;13.90;;;4.70;;
31734;SDS011;18313;48.518;9.124;2023-05-24T08:12:25;13.23;;;4.40;;
31734;SDS011;18313;48.518;9.124;2023-05-24T08:14:55;14.50;;;4.57;;
31734;SDS011;18313;48.518;9.124;2023-05-24T08:17:23;16.35;;;4.57;;
31734;SDS011;18313;48.518;9.124;2023-05-24T08:19:50;14.90;;;4.57;;
31734;SDS011;18313;48.518;9.124;2023-05-24T08:22:17;13.75;;;4.53;;
31734;SDS011;18313;48.518;9.124;2023-05-24T08:24:46;15.35;;;4.40;;
31734;SDS011;18313;48.518;9.124;2023-05-24T08:27:13;19.40;;;4.70;;
31734;SDS011;18313;48.518;9.124;2023-05-24T08:29:41;15.45;;;4.82;;
31734;SDS011;18313;48.518;9.124;2023-05-24T08:32:10;11.88;;;4.57;;
31734;SDS011;18313;48.518;9.124;2023-05-24T08:34:38;13.57;;;4.78;;
31734;SDS011;18313;48.518;9.124;2023-05-24T08:37:05;12.25;;;4.90;;
31734;SDS011;18313;48.518;9.124;2023-05-24T08:39:33;14.50;;;4.72;;
31734;SDS011;18313;48.518;9.124;2023-05-24T08:42:01;14.80;;;4.50;;
31734;SDS011;18313;48.518;9.124;2023-05-24T08:44:34;18.52;;;5.45;;
31734;SDS011;18313;48.518;9.124;2023-05-24T08:47:12;14.98;;;5.00;;
31734;SDS011;18313;48.518;9.124;2023-05-24T08:49:41;13.40;;;4.80;;
31734;SDS011;18313;48.518;9.124;2023-05-24T08:52:08;10.88;;;4.60;;
31734;SDS011;18313;48.518;9.124;2023-05-24T08:54:37;13.18;;;4.70;;
31734;SDS011;18313;48.518;9.124;2023-05-24T08:57:08;16.10;;;5.75;;
31734;SDS011;18313;48.518;9.124;2023-05-24T08:59:40;12.18;;;4.55;;
31734;SDS011;18313;48.518;9.124;2023-05-24T09:02:09;12.93;;;4.65;;
31734;SDS011;18313;48.518;9.124;2023-05-24T09:04:39;14.30;;;4.57;;
31734;SDS011;18313;48.518;9.124;2023-05-24T09:07:11;15.55;;;5.25;;
31734;SDS011;18313;48.518;9.124;2023-05-24T09:09:41;13.50;;;4.82;;
31734;SDS011;18313;48.518;9.124;2023-05-24T09:12:16;16.40;;;5.30;;
31734;SDS011;18313;48.518;9.124;2023-05-24T09:15:02;12.88;;;5.32;;
31734;SDS011;18313;48.518;9.124;2023-05-24T09:17:30;15.32;;;4.88;;
31734;SDS011;18313;48.518;9.124;2023-05-24T09:19:59;16.73;;;4.93;;
31734;SDS011;18313;48.518;9.124;2023-05-24T09:22:27;13.57;;;4.63;;
31734;SDS011;18313;48.518;9.124;2023-05-24T09:24:57;17.77;;;5.82;;
31734;SDS011;18313;48.518;9.124;2023-05-24T09:27:26;13.98;;;4.88;;
31734;SDS011;18313;48.518;9.124;2023-05-24T09:29:54;14.25;;;4.75;;
31734;SDS011;18313;48.518;9.124;2023-05-24T09:32:22;14.98;;;5.13;;
31734;SDS011;18313;48.518;9.124;2023-05-24T09:34:50;16.05;;;4.72;;
31734;SDS011;18313;48.518;9.124;2023-05-24T09:37:20;14.90;;;4.88;;
31734;SDS011;18313;48.518;9.124;2023-05-24T09:39:56;16.63;;;5.20;;
31734;SDS011;18313;48.518;9.124;2023-05-24T09:42:24;13.18;;;4.78;;
31734;SDS011;18313;48.518;9.124;2023-05-24T09:45:27;13.15;;;5.05;;
31734;SDS011;18313;48.518;9.124;2023-05-24T09:50:18;16.90;;;4.78;;
31734;SDS011;18313;48.518;9.124;2023-05-24T09:52:45;14.27;;;4.78;;
31734;SDS011;18313;48.518;9.124;2023-05-24T09:55:16;14.40;;;4.53;;
31734;SDS011;18313;48.518;9.124;2023-05-24T09:57:49;12.98;;;5.07;;
31734;SDS011;18313;48.518;9.124;2023-05-24T10:00:21;13.68;;;4.57;;
31734;SDS011;18313;48.518;9.124;2023-05-24T10:02:59;17.85;;;4.60;;
31734;SDS011;18313;48.518;9.124;2023-05-24T10:05:33;13.07;;;4.60;;
31734;SDS011;18313;48.518;9.124;2023-05-24T10:08:01;16.42;;;4.57;;
31734;SDS011;18313;48.518;9.124;2023-05-24T10:10:31;12.85;;;4.57;;
31734;SDS011;18313;48.518;9.124;2023-05-24T10:12:59;15.88;;;4.40;;
31734;SDS011;18313;48.518;9.124;2023-05-24T10:15:27;13.95;;;4.72;;
31734;SDS011;18313;48.518;9.124;2023-05-24T10:17:56;15.23;;;4.40;;
31734;SDS011;18313;48.518;9.124;2023-05-24T10:20:24;15.90;;;4.20;;
31734;SDS011;18313;48.518;9.124;2023-05-24T10:22:54;13.30;;;5.00;;
31734;SDS011;18313;48.518;9.124;2023-05-24T10:25:27;12.27;;;4.20;;
31734;SDS011;18313;48.518;9.124;2023-05-24T10:28:00;14.50;;;4.45;;
31734;SDS011;18313;48.518;9.124;2023-05-24T10:33:06;17.48;;;4.95;;
31734;SDS011;18313;48.518;9.124;2023-05-24T10:35:37;13.88;;;4.50;;
31734;SDS011;18313;48.518;9.124;2023-05-24T10:38:06;15.15;;;4.32;;
31734;SDS011;18313;48.518;9.124;2023-05-24T10:40:33;13.60;;;4.18;;
31734;SDS011;18313;48.518;9.124;2023-05-24T10:43:06;12.80;;;4.43;;
31734;SDS011;18313;48.518;9.124;2023-05-24T10:45:38;13.73;;;4.63;;
31734;SDS011;18313;48.518;9.124;2023-05-24T10:50:42;11.82;;;4.45;;
31734;SDS011;18313;48.518;9.124;2023-05-24T10:55:58;16.58;;;4.65;;
31734;SDS011;18313;48.518;9.124;2023-05-24T11:00:59;11.13;;;4.13;;
31734;SDS011;18313;48.518;9.124;2023-05-24T11:03:34;11.27;;;4.80;;
31734;SDS011;18313;48.518;9.124;2023-05-24T11:06:02;18.50;;;4.68;;
31734;SDS011;18313;48.518;9.124;2023-05-24T11:08:34;17.83;;;5.00;;
31734;SDS011;18313;48.518;9.124;2023-05-24T11:11:08;15.52;;;5.25;;
31734;SDS011;18313;48.518;9.124;2023-05-24T11:13:54;16.40;;;4.78;;
31734;SDS011;18313;48.518;9.124;2023-05-24T11:16:32;14.95;;;4.40;;
31734;SDS011;18313;48.518;9.124;2023-05-24T11:19:16;15.10;;;4.70;;
31734;SDS011;18313;48.518;9.124;2023-05-24T11:21:45;14.52;;;4.63;;
31734;SDS011;18313;48.518;9.124;2023-05-24T11:24:15;16.27;;;4.57;;
31734;SDS011;18313;48.518;9.124;2023-05-24T11:26:45;18.80;;;4.85;;
31734;SDS011;18313;48.518;9.124;2023-05-24T11:29:13;14.60;;;4.72;;
31734;SDS011;18313;48.518;9.124;2023-05-24T11:31:56;21.35;;;5.00;;
31734;SDS011;18313;48.518;9.124;2023-05-24T11:34:27;14.82;;;4.32;;
31734;SDS011;18313;48.518;9.124;2023-05-24T11:36:55;15.13;;;5.03;;
31734;SDS011;18313;48.518;9.124;2023-05-24T11:39:34;13.35;;;4.45;;
31734;SDS011;18313;48.518;9.124;2023-05-24T11:42:03;15.00;;;4.47;;
31734;SDS011;18313;48.518;9.124;2023-05-24T11:44:31;14.68;;;4.88;;
31734;SDS011;18313;48.518;9.124;2023-05-24T11:47:00;11.77;;;4.90;;
31734;SDS011;18313;48.518;9.124;2023-05-24T11:49:28;14.68;;;4.57;;
31734;SDS011;18313;48.518;9.124;2023-05-24T11:51:56;13.02;;;4.75;;
31734;SDS011;18313;48.518;9.124;2023-05-24T11:54:28;13.60;;;4.45;;
31734;SDS011;18313;48.518;9.124;2023-05-24T11:56:57;17.35;;;4.80;;
31734;SDS011;18313;48.518;9.124;2023-05-24T11:59:25;16.35;;;4.90;;
31734;SDS011;18313;48.518;9.124;2023-05-24T12:01:57;20.50;;;5.07;;
31734;SDS011;18313;48.518;9.124;2023-05-24T12:04:30;16.83;;;4.90;;
31734;SDS011;18313;48.518;9.124;2023-05-24T12:06:59;12.75;;;4.22;;
31734;SDS011;18313;48.518;9.124;2023-05-24T12:09:27;21.75;;;5.45;;
31734;SDS011;18313;48.518;9.124;2023-05-24T12:11:54;17.60;;;4.85;;
31734;SDS011;18313;48.518;9.124;2023-05-24T12:14:27;17.75;;;4.82;;
31734;SDS011;18313;48.518;9.124;2023-05-24T12:16:59;16.17;;;5.03;;
31734;SDS011;18313;48.518;9.124;2023-05-24T12:19:30;16.27;;;5.20;;
31734;SDS011;18313;48.518;9.124;2023-05-24T12:22:03;20.17;;;5.20;;
31734;SDS011;18313;48.518;9.124;2023-05-24T12:24:32;16.75;;;4.63;;
31734;SDS011;18313;48.518;9.124;2023-05-24T12:27:04;18.38;;;5.22;;
31734;SDS011;18313;48.518;9.124;2023-05-24T12:32:04;11.70;;;4.30;;
31734;SDS011;18313;48.518;9.124;2023-05-24T12:34:39;15.68;;;5.10;;
31734;SDS011;18313;48.518;9.124;2023-05-24T12:37:07;17.67;;;4.85;;
31734;SDS011;18313;48.518;9.124;2023-05-24T12:39:35;16.77;;;4.78;;
31734;SDS011;18313;48.518;9.124;2023-05-24T12:42:03;15.32;;;4.70;;
31734;SDS011;18313;48.518;9.124;2023-05-24T12:44:33;15.93;;;3.85;;
31734;SDS011;18313;48.518;9.124;2023-05-24T12:47:03;11.27;;;3.97;;
31734;SDS011;18313;48.518;9.124;2023-05-24T12:49:33;13.75;;;4.25;;
31734;SDS011;18313;48.518;9.124;2023-05-24T12:52:00;15.30;;;4.95;;
31734;SDS011;18313;48.518;9.124;2023-05-24T12:54:27;14.27;;;4.22;;
31734;SDS011;18313;48.518;9.124;2023-05-24T12:56:55;17.48;;;4.88;;
31734;SDS011;18313;48.518;9.124;2023-05-24T12:59:26;9.88;;;3.70;;
31734;SDS011;18313;48.518;9.124;2023-05-24T13:01:54;14.02;;;3.92;;
31734;SDS011;18313;48.518;9.124;2023-05-24T13:04:23;14.05;;;3.75;;
31734;SDS011;18313;48.518;9.124;2023-05-24T13:06:53;14.43;;;3.83;;
31734;SDS011;18313;48.518;9.124;2023-05-24T13:09:20;10.63;;;4.00;;
31734;SDS011;18313;48.518;9.124;2023-05-24T13:11:49;12.00;;;3.85;;
31734;SDS011;18313;48.518;9.124;2023-05-24T13:14:18;11.23;;;3.75;;
31734;SDS011;18313;48.518;9.124;2023-05-24T13:16:46;12.68;;;3.92;;
31734;SDS011;18313;48.518;9.124;2023-05-24T13:19:14;11.93;;;3.42;;
31734;SDS011;18313;48.518;9.124;2023-05-24T13:21:42;11.75;;;3.60;;
31734;SDS011;18313;48.518;9.124;2023-05-24T13:24:10;11.57;;;4.00;;
31734;SDS011;18313;48.518;9.124;2023-05-24T13:26:40;9.82;;;3.78;;
31734;SDS011;18313;48.518;9.124;2023-05-24T13:29:07;17.58;;;4.10;;
31734;SDS011;18313;48.518;9.124;2023-05-24T13:31:37;11.70;;;3.58;;
31734;SDS011;18313;48.518;9.124;2023-05-24T13:34:06;14.15;;;3.88;;
31734;SDS011;18313;48.518;9.124;2023-05-24T13:36:36;13.10;;;4.18;;
31734;SDS011;18313;48.518;9.124;2023-05-24T13:39:04;11.45;;;3.30;;
31734;SDS011;18313;48.518;9.124;2023-05-24T13:41:41;10.20;;;3.55;;
31734;SDS011;18313;48.518;9.124;2023-05-24T13:44:28;9.63;;;3.42;;
31734;SDS011;18313;48.518;9.124;2023-05-24T13:46:56;11.57;;;3.33;;
31734;SDS011;18313;48.518;9.124;2023-05-24T13:49:23;10.40;;;3.42;;
31734;SDS011;18313;48.518;9.124;2023-05-24T13:51:51;10.05;;;3.00;;
31734;SDS011;18313;48.518;9.124;2023-05-24T13:54:22;8.57;;;3.00;;
31734;SDS011;18313;48.518;9.124;2023-05-24T13:56:50;11.48;;;3.90;;
31734;SDS011;18313;48.518;9.124;2023-05-24T13:59:17;11.38;;;4.40;;
31734;SDS011;18313;48.518;9.124;2023-05-24T14:01:45;9.48;;;3.72;;
31734;SDS011;18313;48.518;9.124;2023-05-24T14:04:12;11.40;;;3.60;;
31734;SDS011;18313;48.518;9.124;2023-05-24T14:06:39;12.27;;;3.85;;
31734;SDS011;18313;48.518;9.124;2023-05-24T14:09:06;9.38;;;3.35;;
31734;SDS011;18313;48.518;9.124;2023-05-24T14:11:34;10.80;;;3.55;;
31734;SDS011;18313;48.518;9.124;2023-05-24T14:14:02;11.68;;;3.80;;
31734;SDS011;18313;48.518;9.124;2023-05-24T14:16:32;10.68;;;3.47;;
31734;SDS011;18313;48.518;9.124;2023-05-24T14:18:59;11.25;;;3.60;;
31734;SDS011;18313;48.518;9.124;2023-05-24T14:21:26;9.80;;;3.50;;
31734;SDS011;18313;48.518;9.124;2023-05-24T14:23:53;9.93;;;2.95;;
31734;SDS011;18313;48.518;9.124;2023-05-24T14:26:20;9.18;;;3.50;;
31734;SDS011;18313;48.518;9.124;2023-05-24T14:28:49;9.05;;;3.53;;
31734;SDS011;18313;48.518;9.124;2023-05-24T14:31:21;9.15;;;3.55;;
31734;SDS011;18313;48.518;9.124;2023-05-24T14:33:48;12.43;;;3.05;;
31734;SDS011;18313;48.518;9.124;2023-05-24T14:36:16;9.00;;;3.40;;
31734;SDS011;18313;48.518;9.124;2023-05-24T14:38:43;13.23;;;3.83;;
31734;SDS011;18313;48.518;9.124;2023-05-24T14:41:10;17.63;;;4.18;;
31734;SDS011;18313;48.518;9.124;2023-05-24T14:43:37;13.18;;;3.97;;
31734;SDS011;18313;48.518;9.124;2023-05-24T14:46:05;11.23;;;4.22;;
31734;SDS011;18313;48.518;9.124;2023-05-24T14:48:33;8.75;;;3.25;;
31734;SDS011;18313;48.518;9.124;2023-05-24T14:51:00;13.93;;;4.28;;
31734;SDS011;18313;48.518;9.124;2023-05-24T14:53:28;10.05;;;3.00;;
31734;SDS011;18313;48.518;9.124;2023-05-24T14:55:55;8.13;;;2.70;;
31734;SDS011;18313;48.518;9.124;2023-05-24T14:58:22;9.57;;;2.88;;
31734;SDS011;18313;48.518;9.124;2023-05-24T15:00:49;8.75;;;2.60;;
31734;SDS011;18313;48.518;9.124;2023-05-24T15:03:18;8.60;;;2.63;;
31734;SDS011;18313;48.518;9.124;2023-05-24T15:05:45;6.80;;;2.47;;
31734;SDS011;18313;48.518;9.124;2023-05-24T15:08:12;7.20;;;2.55;;
31734;SDS011;18313;48.518;9.124;2023-05-24T15:10:40;7.40;;;2.30;;
31734;SDS011;18313;48.518;9.124;2023-05-24T15:13:11;12.15;;;3.47;;
31734;SDS011;18313;48.518;9.124;2023-05-24T15:15:38;8.93;;;2.80;;
31734;SDS011;18313;48.518;9.124;2023-05-24T15:18:05;9.25;;;3.08;;